createdAt,value
2022-10-22T00:01:33.635Z,105119.03
2022-10-22T00:04:02.494Z,106410.88
2022-10-22T00:06:31.031Z,106669.31
2022-10-22T00:09:00.202Z,106669.31
2022-10-22T00:11:28.819Z,106669.31
2022-10-22T00:13:57.126Z,105894.09
2022-10-22T00:16:25.609Z,105635.72
2022-10-22T00:18:55.440Z,105119.03
2022-10-22T00:21:24.030Z,105377.34
2022-10-22T00:23:52.887Z,105894.09
2022-10-22T00:26:21.303Z,105119.03
2022-10-22T00:28:50.050Z,104860.72
2022-10-22T00:31:20.197Z,104602.44
2022-10-22T00:33:49.096Z,105377.34
2022-10-22T00:36:19.247Z,105635.72
2022-10-22T00:38:47.669Z,106669.31
2022-10-22T00:41:16.045Z,106927.75
2022-10-22T00:43:59.292Z,106152.47
2022-10-22T00:46:28.512Z,106152.47
2022-10-22T00:48:59.925Z,105894.09
2022-10-22T00:51:32.871Z,105377.34
2022-10-22T00:54:04.589Z,105119.03
2022-10-22T00:56:34.111Z,105119.03
2022-10-22T00:59:04.647Z,105377.34
2022-10-22T01:01:33.619Z,106152.47
2022-10-22T01:04:02.235Z,105894.09
2022-10-22T01:06:34.496Z,105894.09
2022-10-22T01:09:18.084Z,105377.34
2022-10-22T01:11:55.417Z,104860.72
2022-10-22T01:14:32.785Z,105119.03
2022-10-22T01:17:11.702Z,105377.34
2022-10-22T01:19:59.214Z,105635.72
2022-10-22T01:22:33.363Z,105377.34
2022-10-22T01:25:10.300Z,105377.34
2022-10-22T01:27:53.964Z,106410.88
2022-10-22T01:30:26.084Z,106152.47
2022-10-22T01:32:58.672Z,105894.09
2022-10-22T01:35:31.319Z,105377.34
2022-10-22T01:38:02.940Z,105119.03
2022-10-22T01:40:33.466Z,106152.47
2022-10-22T01:43:05.842Z,105894.09
2022-10-22T01:45:38.923Z,105894.09
2022-10-22T01:48:22.122Z,106152.47
2022-10-22T01:51:18.954Z,106152.47
2022-10-22T01:53:55.022Z,106152.47
2022-10-22T01:56:41.660Z,106152.47
2022-10-22T01:59:21.493Z,105635.72
2022-10-22T02:02:00.398Z,105119.03
2022-10-22T02:04:35.170Z,105377.34
2022-10-22T02:07:07.750Z,105635.72
2022-10-22T02:09:37.850Z,106152.47
2022-10-22T02:12:09.793Z,106152.47
2022-10-22T02:14:41.214Z,106410.88
2022-10-22T02:17:17.682Z,105635.72
2022-10-22T02:19:52.475Z,105377.34
2022-10-22T02:22:21.754Z,105377.34
2022-10-22T02:24:50.905Z,105635.72
2022-10-22T02:27:26.953Z,105894.09
2022-10-22T02:30:02.999Z,106669.31
2022-10-22T02:32:41.091Z,106927.75
2022-10-22T02:35:12.218Z,106927.75
2022-10-22T02:37:41.881Z,105894.09
2022-10-22T02:40:11.364Z,105635.72
2022-10-22T02:42:42.531Z,105635.72
2022-10-22T02:45:11.894Z,105377.34
2022-10-22T02:47:41.857Z,105377.34
2022-10-22T02:50:11.292Z,105119.03
2022-10-22T02:52:40.096Z,105635.72
2022-10-22T02:55:09.899Z,106410.88
2022-10-22T02:57:38.902Z,106152.47
2022-10-22T03:00:15.876Z,105635.72
2022-10-22T03:02:45.936Z,105894.09
2022-10-22T03:05:14.643Z,105119.03
2022-10-22T03:07:43.354Z,105635.72
2022-10-22T03:10:11.966Z,105635.72
2022-10-22T03:12:40.706Z,105894.09
2022-10-22T03:15:09.589Z,105377.34
2022-10-22T03:17:38.338Z,104860.72
2022-10-22T03:20:09.853Z,104860.72
2022-10-22T03:22:42.596Z,105635.72
2022-10-22T03:25:16.598Z,105377.34
2022-10-22T03:27:45.857Z,107186.22
2022-10-22T03:30:14.731Z,107186.22
2022-10-22T03:32:43.095Z,105894.09
2022-10-22T03:35:12.902Z,105377.34
2022-10-22T03:37:42.072Z,105894.09
2022-10-22T03:40:13.041Z,106669.31
2022-10-22T03:42:43.475Z,106669.31
2022-10-22T03:45:12.691Z,105635.72
2022-10-22T03:47:42.257Z,105635.72
2022-10-22T03:50:12.709Z,105635.72
2022-10-22T03:52:41.724Z,105635.72
2022-10-22T03:55:11.213Z,105377.34
2022-10-22T03:57:40.029Z,105635.72
2022-10-22T04:00:10.478Z,105119.03
2022-10-22T04:02:39.657Z,104344.16
2022-10-22T04:05:09.055Z,104344.16
2022-10-22T04:07:39.230Z,104860.72
2022-10-22T04:10:08.623Z,105635.72
2022-10-22T04:12:37.030Z,104602.44
2022-10-22T04:15:09.656Z,105377.34
2022-10-22T04:17:39.300Z,105377.34
2022-10-22T04:20:08.817Z,105894.09
2022-10-22T04:22:39.014Z,106152.47
2022-10-22T04:25:07.809Z,105894.09
2022-10-22T04:27:36.819Z,105119.03
2022-10-22T04:30:06.782Z,104602.44
2022-10-22T04:32:35.232Z,105119.03
2022-10-22T04:35:03.698Z,104860.72
2022-10-22T04:37:33.056Z,105635.72
2022-10-22T04:40:02.897Z,105635.72
2022-10-22T04:42:31.222Z,105894.09
2022-10-22T04:44:59.570Z,105635.72
2022-10-22T04:47:28.170Z,106152.47
2022-10-22T04:49:56.600Z,106669.31
2022-10-22T04:52:25.004Z,107444.69
2022-10-22T04:54:53.563Z,107703.22
2022-10-22T04:57:23.645Z,107186.22
2022-10-22T04:59:52.231Z,106927.75
2022-10-22T05:02:21.122Z,106410.88
2022-10-22T05:04:49.595Z,106410.88
2022-10-22T05:07:18.260Z,105635.72
2022-10-22T05:09:46.820Z,105894.09
2022-10-22T05:12:15.466Z,105894.09
2022-10-22T05:14:45.640Z,105119.03
2022-10-22T05:17:14.260Z,104602.44
2022-10-22T05:19:43.207Z,104860.72
2022-10-22T05:22:11.761Z,105377.34
2022-10-22T05:24:41.187Z,104860.72
2022-10-22T05:27:09.598Z,104860.72
2022-10-22T05:29:38.173Z,104860.72
2022-10-22T05:32:08.310Z,104085.91
2022-10-22T05:34:37.381Z,104344.16
2022-10-22T05:37:05.925Z,104602.44
2022-10-22T05:39:36.966Z,105119.03
2022-10-22T05:42:05.975Z,104085.91
2022-10-22T05:44:34.865Z,103827.66
2022-10-22T05:47:03.455Z,104602.44
2022-10-22T05:49:33.423Z,104344.16
2022-10-22T05:52:02.067Z,104344.16
2022-10-22T05:54:30.422Z,104602.44
2022-10-22T05:56:58.970Z,105635.72
2022-10-22T05:59:27.369Z,105119.03
2022-10-22T06:01:55.869Z,105119.03
2022-10-22T06:04:24.660Z,105119.03
2022-10-22T06:06:55.302Z,105635.72
2022-10-22T06:09:26.206Z,106152.47
2022-10-22T06:11:56.294Z,106669.31
2022-10-22T06:14:26.131Z,107703.22
2022-10-22T06:16:54.896Z,109513.28
2022-10-22T06:19:25.817Z,110548.00
2022-10-22T06:21:55.787Z,110806.75
2022-10-22T06:24:24.177Z,109771.94
2022-10-22T06:26:53.513Z,109771.94
2022-10-22T06:29:22.083Z,110030.59
2022-10-22T06:31:50.852Z,109771.94
2022-10-22T06:34:20.280Z,110030.59
2022-10-22T06:36:49.441Z,110030.59
2022-10-22T06:39:19.764Z,110030.59
2022-10-22T06:41:48.093Z,109771.94
2022-10-22T06:44:22.555Z,110030.59
2022-10-22T06:46:52.172Z,110289.28
2022-10-22T06:49:22.183Z,110030.59
2022-10-22T06:51:52.307Z,110289.28
2022-10-22T06:54:22.722Z,110030.59
2022-10-22T06:56:51.609Z,110030.59
2022-10-22T06:59:20.170Z,110289.28
2022-10-22T07:01:48.796Z,110030.59
2022-10-22T07:04:17.426Z,109254.63
2022-10-22T07:06:46.120Z,108737.41
2022-10-22T07:09:14.648Z,108220.28
2022-10-22T07:11:46.485Z,108478.84
2022-10-22T07:14:16.026Z,108220.28
2022-10-22T07:16:45.848Z,108478.84
2022-10-22T07:19:15.039Z,107703.22
2022-10-22T07:21:43.964Z,107186.22
2022-10-22T07:24:12.488Z,106927.75
2022-10-22T07:26:41.295Z,106669.31
2022-10-22T07:29:11.341Z,105894.09
2022-10-22T07:31:40.036Z,106152.47
2022-10-22T07:34:08.627Z,105635.72
2022-10-22T07:36:37.144Z,105894.09
2022-10-22T07:39:05.897Z,105119.03
2022-10-22T07:41:34.693Z,104860.72
2022-10-22T07:44:03.237Z,105119.03
2022-10-22T07:46:35.317Z,104085.91
2022-10-22T07:49:03.990Z,103827.66
2022-10-22T07:51:32.433Z,104085.91
2022-10-22T07:54:00.975Z,104085.91
2022-10-22T07:56:29.587Z,102794.91
2022-10-22T07:58:58.255Z,100730.31
2022-10-22T08:01:27.189Z,102020.53
2022-10-22T08:03:57.162Z,102278.66
2022-10-22T08:06:25.606Z,101504.38
2022-10-22T08:08:54.514Z,102278.66
2022-10-22T08:11:23.201Z,102278.66
2022-10-22T08:13:51.617Z,98924.81
2022-10-22T08:16:20.457Z,100472.31
2022-10-22T08:18:49.031Z,98409.13
2022-10-22T08:21:18.954Z,96089.47
2022-10-22T08:23:47.640Z,92741.59
2022-10-22T08:26:16.210Z,94286.38
2022-10-22T08:28:45.144Z,90425.72
2022-10-22T08:31:13.758Z,92226.81
2022-10-22T08:33:42.867Z,89139.81
2022-10-22T08:36:11.533Z,92741.59
2022-10-22T08:38:41.749Z,89911.31
2022-10-22T08:41:13.854Z,90168.50
2022-10-22T08:44:08.449Z,84514.44
2022-10-22T08:47:00.878Z,86569.41
2022-10-22T08:49:37.144Z,86826.34
2022-10-22T08:52:13.900Z,84257.66
2022-10-22T08:54:52.127Z,81947.50
2022-10-22T08:57:34.999Z,82460.72
2022-10-22T09:00:06.956Z,77075.53
2022-10-22T09:02:42.577Z,76563.09
2022-10-22T09:05:33.292Z,77075.53
2022-10-22T09:08:02.549Z,73234.09
2022-10-22T09:10:38.133Z,68438.41
2022-10-22T09:13:06.697Z,64822.09
2022-10-22T09:15:35.266Z,64748.28
2022-10-22T09:18:23.761Z,62802.06
2022-10-22T09:20:57.912Z,62070.50
2022-10-22T09:23:34.767Z,61879.19
2022-10-22T09:26:13.422Z,59848.94
2022-10-22T09:28:42.041Z,57991.13
2022-10-22T09:31:13.365Z,57342.22
2022-10-22T09:33:43.070Z,57598.97
2022-10-22T09:36:17.546Z,57481.53
2022-10-22T09:38:48.731Z,57075.53
2022-10-22T09:41:20.810Z,56424.81
2022-10-22T09:43:49.472Z,56199.97
2022-10-22T09:46:20.564Z,55849.81
2022-10-22T09:48:51.605Z,55696.63
2022-10-22T09:51:23.163Z,55690.66
2022-10-22T09:53:59.060Z,55404.19
2022-10-22T09:56:35.496Z,55298.78
2022-10-22T09:59:04.431Z,55145.63
2022-10-22T10:01:34.975Z,55026.28
2022-10-22T10:04:09.419Z,54877.09
2022-10-22T10:06:41.168Z,54809.50
2022-10-22T10:09:17.452Z,54656.34
2022-10-22T10:11:55.278Z,54712.03
2022-10-22T10:14:32.789Z,54727.94
2022-10-22T10:17:09.897Z,54680.22
2022-10-22T10:19:52.730Z,54600.66
2022-10-22T10:22:45.184Z,54584.75
2022-10-22T10:25:33.900Z,54564.88
2022-10-22T10:28:18.866Z,54550.94
2022-10-22T10:30:59.257Z,54505.22
2022-10-22T10:33:39.943Z,54544.97
2022-10-22T10:36:16.083Z,54417.72
2022-10-22T10:38:57.154Z,54415.72
2022-10-22T10:41:39.930Z,54397.81
2022-10-22T10:44:46.843Z,54298.41
2022-10-22T10:47:30.772Z,54328.22
2022-10-22T10:50:12.732Z,54278.50
2022-10-22T10:52:46.702Z,54264.59
2022-10-22T10:55:23.743Z,54246.69
2022-10-22T10:58:01.032Z,54210.91
2022-10-22T11:00:36.474Z,54135.34
2022-10-22T11:03:38.628Z,54183.06
2022-10-22T11:06:11.093Z,54179.09
2022-10-22T11:08:45.578Z,54155.22
2022-10-22T11:11:19.894Z,54145.28
2022-10-22T11:13:54.182Z,54175.13
2022-10-22T11:16:28.295Z,54191.03
2022-10-22T11:19:04.863Z,54159.19
2022-10-22T11:21:40.307Z,54095.56
2022-10-22T11:24:18.517Z,54139.31
2022-10-22T11:26:50.266Z,54107.50
2022-10-22T11:29:27.219Z,54051.81
2022-10-22T11:32:00.921Z,54029.97
2022-10-22T11:34:35.412Z,54035.91
2022-10-22T11:37:06.299Z,54043.88
2022-10-22T11:39:40.348Z,54041.88
2022-10-22T11:42:14.054Z,54018.03
2022-10-22T11:44:59.119Z,53942.47
2022-10-22T11:47:33.104Z,53922.59
2022-10-22T11:50:20.076Z,53924.56
2022-10-22T11:52:56.288Z,53936.50
2022-10-22T11:55:35.283Z,53904.69
2022-10-22T11:58:24.382Z,53912.66
2022-10-22T12:00:52.928Z,53942.47
2022-10-22T12:03:40.451Z,53902.69
2022-10-22T12:06:21.128Z,53876.84
2022-10-22T12:08:57.602Z,53878.84
2022-10-22T12:11:29.017Z,53829.13
2022-10-22T12:14:14.130Z,53845.03
2022-10-22T12:17:02.015Z,53817.22
2022-10-22T12:19:37.073Z,53839.06
2022-10-22T12:22:15.496Z,53817.22
2022-10-22T12:24:47.146Z,53825.16
2022-10-22T12:27:22.759Z,53809.25
2022-10-22T12:29:56.874Z,53779.44
2022-10-22T12:32:36.357Z,53777.44
2022-10-22T12:35:09.390Z,53771.47
2022-10-22T12:37:38.757Z,53789.38
2022-10-22T12:40:18.824Z,53741.66
2022-10-22T12:42:55.382Z,53753.59
2022-10-22T12:45:25.027Z,53757.56
2022-10-22T12:47:58.442Z,53789.38
2022-10-22T12:50:38.817Z,53779.44
2022-10-22T12:53:07.874Z,53783.41
2022-10-22T12:55:36.418Z,53733.69
2022-10-22T12:58:07.357Z,53785.41
2022-10-22T13:00:36.958Z,53765.50
2022-10-22T13:03:08.402Z,53759.56
2022-10-22T13:05:40.162Z,53775.47
2022-10-22T13:08:12.436Z,53775.47
2022-10-22T13:10:43.331Z,53803.28
2022-10-22T13:13:33.447Z,53753.59
2022-10-22T13:16:16.318Z,53777.44
2022-10-22T13:18:45.232Z,53749.59
2022-10-22T13:21:27.727Z,53733.69
2022-10-22T13:23:59.433Z,53725.75
2022-10-22T13:26:34.797Z,53701.88
2022-10-22T13:29:11.130Z,53745.63
2022-10-22T13:31:47.855Z,53755.56
2022-10-22T13:34:20.143Z,53765.50
2022-10-22T13:36:50.881Z,53747.63
2022-10-22T13:39:20.506Z,53745.63
2022-10-22T13:41:50.361Z,53765.50
2022-10-22T13:44:18.938Z,53759.56
2022-10-22T13:46:48.342Z,53765.50
2022-10-22T13:49:19.444Z,53757.56
2022-10-22T13:51:50.833Z,53783.41
2022-10-22T13:54:22.382Z,53793.34
2022-10-22T13:56:51.036Z,53775.47
2022-10-22T13:59:22.778Z,53749.59
2022-10-22T14:01:53.374Z,53719.78
2022-10-22T14:04:22.146Z,53729.72
2022-10-22T14:06:52.032Z,53686.00
2022-10-22T14:09:21.620Z,53693.94
2022-10-22T14:11:50.428Z,53686.00
2022-10-22T14:14:19.240Z,53662.13
2022-10-22T14:16:47.688Z,53650.19
2022-10-22T14:19:19.143Z,53626.34
2022-10-22T14:21:49.376Z,53658.16
2022-10-22T14:24:19.510Z,53612.44
2022-10-22T14:26:48.000Z,53626.34
2022-10-22T14:29:16.855Z,53628.31
2022-10-22T14:31:45.702Z,53644.22
2022-10-22T14:34:15.864Z,53642.25
2022-10-22T14:36:44.804Z,53620.38
2022-10-22T14:39:13.850Z,53626.34
2022-10-22T14:41:44.106Z,53638.28
2022-10-22T14:44:14.603Z,53638.28
2022-10-22T14:46:44.498Z,53646.22
2022-10-22T14:49:13.543Z,53606.47
2022-10-22T14:51:42.063Z,53614.41
2022-10-22T14:54:10.905Z,53612.44
2022-10-22T14:56:39.396Z,53640.25
2022-10-22T14:59:09.279Z,53594.53
2022-10-22T15:01:38.955Z,53638.28
2022-10-22T15:04:07.613Z,53652.19
2022-10-22T15:06:36.476Z,53636.28
2022-10-22T15:09:05.381Z,53600.50
2022-10-22T15:11:33.930Z,53618.38
2022-10-22T15:14:02.555Z,53656.16
2022-10-22T15:16:32.753Z,53630.31
2022-10-22T15:19:01.209Z,53630.31
2022-10-22T15:21:29.811Z,53650.19
2022-10-22T15:23:58.298Z,53648.22
2022-10-22T15:26:26.644Z,53648.22
2022-10-22T15:28:54.939Z,53678.03
2022-10-22T15:31:49.594Z,53640.25
2022-10-22T15:34:25.101Z,53654.19
2022-10-22T15:36:55.892Z,53687.97
2022-10-22T15:39:24.846Z,53715.81
2022-10-22T15:41:54.199Z,53725.75
2022-10-22T15:44:24.520Z,53743.66
2022-10-22T15:46:55.283Z,53737.69
2022-10-22T15:49:25.127Z,53797.31
2022-10-22T15:51:54.051Z,53821.19
2022-10-22T15:54:25.411Z,53847.03
2022-10-22T15:56:53.832Z,53866.91
2022-10-22T15:59:22.685Z,53882.81
2022-10-22T16:01:51.911Z,53882.81
2022-10-22T16:04:21.780Z,53924.56
2022-10-22T16:06:52.545Z,53916.63
2022-10-22T16:09:22.981Z,53952.41
2022-10-22T16:14:25.427Z,54000.13
2022-10-22T16:16:55.667Z,54035.91
2022-10-22T16:19:25.892Z,54073.69
2022-10-22T16:21:56.510Z,54119.44
2022-10-22T16:24:25.073Z,54155.22
2022-10-22T16:26:54.048Z,54147.28
2022-10-22T16:29:22.372Z,54220.84
2022-10-22T16:31:50.839Z,54284.47
2022-10-22T16:34:19.293Z,54286.47
2022-10-22T16:36:49.178Z,54318.28
2022-10-22T16:39:17.723Z,54312.31
2022-10-22T16:41:46.948Z,54397.81
2022-10-22T16:44:15.424Z,54431.63
2022-10-22T16:46:43.879Z,54485.31
2022-10-22T16:49:12.464Z,54513.16
2022-10-22T16:51:41.124Z,54509.19
2022-10-22T16:54:14.170Z,54590.72
2022-10-22T16:56:42.843Z,54570.84
2022-10-22T16:59:11.274Z,54721.97
2022-10-22T17:01:41.425Z,54755.78
2022-10-22T17:04:10.291Z,54745.84
2022-10-22T17:06:38.918Z,54833.34
2022-10-22T17:09:08.492Z,54833.34
2022-10-22T17:11:40.224Z,54932.78
2022-10-22T17:14:11.379Z,55141.63
2022-10-22T17:16:39.937Z,55089.94
2022-10-22T17:19:08.415Z,55139.66
2022-10-22T17:21:36.753Z,55249.06
2022-10-22T17:24:05.455Z,55424.09
2022-10-22T17:26:34.783Z,55702.59
2022-10-22T17:29:05.579Z,55819.97
2022-10-22T17:31:37.526Z,55989.06
2022-10-22T17:34:07.842Z,56150.22
2022-10-22T17:36:37.356Z,56211.91
2022-10-22T17:39:08.476Z,56086.56
2022-10-22T17:41:38.743Z,56156.19
2022-10-22T17:44:10.132Z,56526.28
2022-10-22T17:46:39.533Z,57085.47
2022-10-22T17:49:16.269Z,57113.34
2022-10-22T17:51:45.082Z,57883.63
2022-10-22T17:54:14.729Z,57393.97
2022-10-22T17:56:43.332Z,57326.28
2022-10-22T17:59:15.963Z,58022.97
2022-10-22T18:01:45.803Z,58379.31
2022-10-22T18:04:16.342Z,58441.03
2022-10-22T18:06:46.230Z,59046.34
2022-10-22T18:09:18.452Z,59540.22
2022-10-22T18:11:48.373Z,59368.97
2022-10-22T18:14:19.398Z,59554.19
2022-10-22T18:16:48.347Z,59741.41
2022-10-22T18:19:19.025Z,59848.94
2022-10-22T18:21:47.612Z,60167.66
2022-10-22T18:24:16.730Z,60311.06
2022-10-22T18:26:45.184Z,60595.94
2022-10-22T18:29:18.231Z,61373.00
2022-10-22T18:31:50.368Z,61689.84
2022-10-22T18:34:21.670Z,62483.09
2022-10-22T18:36:52.231Z,63160.91
2022-10-22T18:39:20.793Z,62632.63
2022-10-22T18:41:49.495Z,63041.28
2022-10-22T18:44:19.418Z,63067.19
2022-10-22T18:46:47.806Z,63406.16
2022-10-22T18:49:19.464Z,63605.53
2022-10-22T18:51:52.564Z,64782.19
2022-10-22T18:54:23.567Z,65322.78
2022-10-22T18:56:52.960Z,65815.59
2022-10-22T18:59:25.046Z,66641.75
2022-10-22T19:01:54.512Z,68586.16
2022-10-22T19:04:23.121Z,68869.72
2022-10-22T19:06:51.431Z,70457.78
2022-10-22T19:09:19.711Z,74258.06
2022-10-22T19:11:48.422Z,77844.31
2022-10-22T19:14:19.614Z,77844.31
2022-10-22T19:16:49.727Z,76563.09
2022-10-22T19:19:20.145Z,75794.56
2022-10-22T19:21:49.543Z,75794.56
2022-10-22T19:24:19.568Z,76563.09
2022-10-22T19:26:49.244Z,78613.28
2022-10-22T19:29:18.884Z,79126.03
2022-10-22T19:31:47.777Z,78869.66
2022-10-22T19:34:17.602Z,79126.03
2022-10-22T19:36:46.188Z,81177.78
2022-10-22T19:39:16.678Z,83230.72
2022-10-22T19:41:45.027Z,82974.03
2022-10-22T19:44:13.326Z,82204.09
2022-10-22T19:46:43.264Z,83230.72
2022-10-22T19:49:12.430Z,83744.16
2022-10-22T19:51:42.418Z,84771.25
2022-10-22T19:54:18.406Z,85284.91
2022-10-22T19:56:47.981Z,85284.91
2022-10-22T19:59:17.074Z,85284.91
2022-10-22T20:01:45.473Z,85798.66
2022-10-22T20:04:17.062Z,86055.56
2022-10-22T20:06:47.306Z,87854.38
2022-10-22T20:09:15.744Z,87083.34
2022-10-22T20:11:44.599Z,88111.41
2022-10-22T20:14:14.170Z,88625.56
2022-10-22T20:16:43.346Z,88625.56
2022-10-22T20:19:13.569Z,88882.69
2022-10-22T20:21:41.957Z,88882.69
2022-10-22T20:24:12.517Z,89139.81
2022-10-22T20:26:40.887Z,89654.13
2022-10-22T20:29:09.539Z,89654.13
2022-10-22T20:31:37.935Z,89911.31
2022-10-22T20:34:06.408Z,89911.31
2022-10-22T20:36:34.719Z,90682.97
2022-10-22T20:39:06.953Z,90168.50
2022-10-22T20:41:40.280Z,89654.13
2022-10-22T20:44:12.660Z,90168.50
2022-10-22T20:46:41.162Z,90425.72
2022-10-22T20:49:12.856Z,90682.97
2022-10-22T20:51:41.431Z,91712.13
2022-10-22T20:54:11.149Z,91197.50
2022-10-22T20:56:46.472Z,91454.81
2022-10-22T20:59:17.157Z,90940.22
2022-10-22T21:01:48.351Z,90168.50
2022-10-22T21:04:17.396Z,89654.13
2022-10-22T21:06:45.858Z,90425.72
2022-10-22T21:09:15.850Z,89396.97
2022-10-22T21:11:45.699Z,89396.97
2022-10-22T21:14:15.794Z,89654.13
2022-10-22T21:16:45.674Z,90425.72
2022-10-22T21:19:14.049Z,89911.31
2022-10-22T21:21:42.441Z,89654.13
2022-10-22T21:24:11.349Z,89654.13
2022-10-22T21:26:40.752Z,90168.50
2022-10-22T21:29:11.343Z,90682.97
2022-10-22T21:31:40.644Z,89911.31
2022-10-22T21:34:09.258Z,90425.72
2022-10-22T21:36:37.821Z,91712.13
2022-10-22T21:39:06.835Z,92484.19
2022-10-22T21:41:35.241Z,91712.13
2022-10-22T21:44:03.733Z,90940.22
2022-10-22T21:46:33.536Z,90425.72
2022-10-22T21:49:03.456Z,90682.97
2022-10-22T21:51:33.487Z,90940.22
2022-10-22T21:54:02.129Z,91712.13
2022-10-22T21:56:33.314Z,90940.22
2022-10-22T21:59:02.769Z,91454.81
2022-10-22T22:01:31.443Z,91712.13
2022-10-22T22:04:01.397Z,91712.13
2022-10-22T22:06:33.364Z,91197.50
2022-10-22T22:09:04.057Z,90425.72
2022-10-22T22:11:32.697Z,90682.97
2022-10-22T22:14:01.117Z,91969.47
2022-10-22T22:16:31.981Z,92226.81
2022-10-22T22:21:32.924Z,91712.13
2022-10-22T22:24:01.261Z,91969.47
2022-10-22T22:26:30.579Z,92741.59
2022-10-22T22:29:00.477Z,92741.59
2022-10-22T22:31:30.716Z,92999.00
2022-10-22T22:34:01.355Z,92741.59
2022-10-22T22:36:33.621Z,92484.19
2022-10-22T22:39:01.980Z,92741.59
2022-10-22T22:41:30.283Z,92999.00
2022-10-22T22:43:58.703Z,93256.44
2022-10-22T22:46:27.173Z,92999.00
2022-10-22T22:48:55.677Z,93513.91
2022-10-22T22:51:25.838Z,93256.44
2022-10-22T22:53:54.212Z,93513.91
2022-10-22T22:56:24.586Z,93771.38
2022-10-22T22:58:53.522Z,93513.91
2022-10-22T23:01:24.452Z,93513.91
2022-10-22T23:03:56.468Z,93513.91
2022-10-22T23:06:27.092Z,93771.38
2022-10-22T23:08:56.051Z,93513.91
2022-10-22T23:11:26.894Z,94543.91
2022-10-22T23:13:57.398Z,95059.00
2022-10-22T23:16:27.890Z,94543.91
2022-10-22T23:18:56.872Z,95059.00
2022-10-22T23:21:29.390Z,94801.44
2022-10-22T23:23:59.566Z,94286.38
2022-10-22T23:26:30.417Z,94028.84
2022-10-22T23:29:02.191Z,92999.00
2022-10-22T23:31:30.839Z,92999.00
2022-10-22T23:33:59.359Z,93256.44
2022-10-22T23:36:29.354Z,92741.59
2022-10-22T23:38:57.820Z,93513.91
2022-10-22T23:41:26.288Z,93513.91
2022-10-22T23:43:54.686Z,93256.44
2022-10-22T23:46:23.265Z,92741.59
2022-10-22T23:48:54.458Z,92741.59
2022-10-22T23:51:23.321Z,91454.81
2022-10-22T23:53:57.889Z,91454.81
2022-10-22T23:56:27.184Z,90940.22
2022-10-22T23:58:56.276Z,91454.81
